Current Weather



TAF Data Links

METAR Data Links

Latest METAR/TAF Data


Available data for KAUS from the past 2 hours
AUSTIN, TX
Metar
KAUS 240253Z 00000KT 10SM CLR 10/01 A3009 RMK AO2 SLP190 T01000011 51006 $

02:53 UTC

Wind: 0° 0kt

Visibility: 10 SM

Sky:

Temp: 10 deg C / 50 deg F

Dewpoint: 1 deg C / 33.8 deg F

Pressure: 30.09 inHg

TAF
KAUS 232333Z 2400/2506 VRB03KT P6SM SKC FM241700 19010KT P6SM FEW250


Available data for KEDC from the past 2 hours
AUSTIN EXEC, TX
Metar
KEDC 240335Z AUTO 00000KT 5SM HZ CLR 10/00 A3010 RMK AO2

03:35 UTC

Wind: 0° 0kt

Visibility: 5 SM

Sky:

Temp: 10 deg C / 50 deg F

Dewpoint: 0 deg C / 32 deg F

Pressure: 30.1 inHg



Available data for KRYW from the past 2 hours
LAGO VISTA, TX
Metar
KRYW 240335Z AUTO 17005KT 7SM CLR 14/M01 A3010 RMK AO2 T01421011

03:35 UTC

Wind: 170° 5kt

Visibility: 7 SM

Sky:

Temp: 14 deg C / 57.2 deg F

Dewpoint: -1 deg C / 30.2 deg F

Pressure: 30.1 inHg